Time;durP1;ratioP1;P1;durP2;ratioP2;P2;SDS_P1;SDS_P2;PMS_P1;PMS_P2;Temp;Humidity;BMP_temperature;BMP_pressure;BME280_temperature;BME280_humidity;BME280_pressure;Samples;Min_cycle;Max_cycle;Signal;HPM_P1;HPM_P2
2024/03/18 08:07:21;;;;;;;3.85;2.28;;;;;;;;;;4442658;27;20066;-85
2024/03/18 08:10:21;;;;;;;2.05;1.15;;;;;;;;;;4818498;29;20195;-83
2024/03/18 08:12:59;;;;;;;5.13;2.70;;;;;;;;;;4798053;29;20123;-82
2024/03/18 08:15:25;;;;;;;8.10;2.20;;;;;;;;;;4819080;29;20050;-81
2024/03/18 08:36:49;;;;;;;2.50;1.30;;;;;;;;;;3095471;24;20555;-83
2024/03/18 08:39:16;;;;;;;6.75;1.40;;;;;;;;;;4837394;29;20045;-83
2024/03/18 08:41:42;;;;;;;4.20;1.30;;;;;;;;;;4835542;29;20060;-83
2024/03/18 08:44:08;;;;;;;5.70;1.00;;;;;;;;;;4841627;29;20041;-84
2024/03/18 08:46:34;;;;;;;2.30;1.50;;;;;;;;;;4849718;29;20041;-83
2024/03/18 08:49:00;;;;;;;3.15;1.13;;;;;;;;;;4857267;29;20150;-83
2024/03/18 08:51:26;;;;;;;6.43;1.88;;;;;;;;;;4862955;29;20041;-83
2024/03/18 08:53:52;;;;;;;3.35;1.90;;;;;;;;;;4849198;29;20053;-83
2024/03/18 08:56:18;;;;;;;3.65;1.55;;;;;;;;;;4849682;29;20128;-83
2024/03/18 08:58:44;;;;;;;4.00;1.60;;;;;;;;;;4833235;29;20042;-83
2024/03/18 09:01:10;;;;;;;4.55;1.50;;;;;;;;;;4857754;29;20128;-83
2024/03/18 09:03:37;;;;;;;3.03;1.50;;;;;;;;;;4856917;29;20308;-83
2024/03/18 09:06:03;;;;;;;4.05;1.77;;;;;;;;;;4837972;29;20049;-83
2024/03/18 09:08:29;;;;;;;3.08;1.33;;;;;;;;;;4857045;29;20068;-83
2024/03/18 09:10:55;;;;;;;2.95;1.42;;;;;;;;;;4855593;29;20061;-83
2024/03/18 09:13:21;;;;;;;3.35;1.40;;;;;;;;;;4851803;29;20068;-83
2024/03/18 09:15:49;;;;;;;3.67;1.10;;;;;;;;;;4836035;29;20484;-82
2024/03/18 09:18:15;;;;;;;10.02;2.65;;;;;;;;;;4854047;29;20037;-83
2024/03/18 09:20:41;;;;;;;5.53;1.17;;;;;;;;;;4839178;29;20053;-83
2024/03/18 09:23:07;;;;;;;6.25;1.50;;;;;;;;;;4852423;29;20046;-82
2024/03/18 09:25:35;;;;;;;3.50;1.52;;;;;;;;;;4858115;29;20488;-83
2024/03/18 09:28:01;;;;;;;3.30;1.25;;;;;;;;;;4860452;29;20038;-82
2024/03/18 09:30:28;;;;;;;6.63;1.50;;;;;;;;;;4840051;29;20050;-82
2024/03/18 09:32:54;;;;;;;5.88;1.83;;;;;;;;;;4859166;29;20038;-82
2024/03/18 09:35:20;;;;;;;1.98;1.25;;;;;;;;;;4834546;29;20045;-83
2024/03/18 09:37:46;;;;;;;14.82;2.22;;;;;;;;;;4853813;29;20057;-83
2024/03/18 09:40:12;;;;;;;5.45;1.77;;;;;;;;;;4840982;29;20131;-83
2024/03/18 09:42:38;;;;;;;7.85;1.73;;;;;;;;;;4854155;29;20049;-83
2024/03/18 09:45:06;;;;;;;2.33;0.98;;;;;;;;;;4833337;29;20053;-83
2024/03/18 09:47:32;;;;;;;3.03;1.30;;;;;;;;;;4851727;29;20140;-83
2024/03/18 09:49:59;;;;;;;1.33;0.50;;;;;;;;;;4842237;29;20042;-83
2024/03/18 10:10:20;;;;;;;6.35;2.30;;;;;;;;;;4671132;24;20284;-86
2024/03/18 10:12:49;;;;;;;2.65;0.90;;;;;;;;;;4834379;29;20073;-82
2024/03/18 10:15:15;;;;;;;5.38;0.90;;;;;;;;;;4829000;29;20042;-83
2024/03/18 10:17:44;;;;;;;1.13;0.60;;;;;;;;;;4832121;29;20046;-84
2024/03/18 10:33:23;;;;;;;3.67;1.40;;;;;;;;;;5389082;24;20582;-84
2024/03/18 10:42:10;;;;;;;1.25;0.60;;;;;;;;;;4828834;29;20110;-82
2024/03/18 10:58:00;;;;;;;1.52;0.50;;;;;;;;;;2020084;24;21415;-84
2024/03/18 11:01:02;;;;;;;;;;;;;;;;;;;;;
2024/03/18 11:04:01;;;;;;;;;;;;;;;;;;;;;
2024/03/18 11:06:28;;;;;;;3.97;0.52;;;;;;;;;;4947889;24;20077;-85
2024/03/18 11:09:19;;;;;;;1.65;0.80;;;;;;;;;;4833264;29;20050;-86
2024/03/18 11:12:14;;;;;;;2.95;0.63;;;;;;;;;;4830204;29;20077;-85
2024/03/18 11:19:58;;;;;;;1.60;0.50;;;;;;;;;;4868987;24;20143;-87
2024/03/18 11:22:24;;;;;;;3.63;0.35;;;;;;;;;;4844549;29;20113;-83
2024/03/18 11:24:53;;;;;;;0.40;0.25;;;;;;;;;;4840454;29;20544;-85
2024/03/18 11:27:20;;;;;;;0.85;0.65;;;;;;;;;;4841671;29;20044;-85
2024/03/18 11:29:51;;;;;;;0.32;0.30;;;;;;;;;;4853057;29;20093;-85
2024/03/18 11:32:51;;;;;;;;;;;;;;;;;;;;;
2024/03/18 11:35:33;;;;;;;0.40;0.20;;;;;;;;;;4856595;29;20041;-87
2024/03/18 11:38:11;;;;;;;;;;;;;;;;;;4842994;29;20042;-86
2024/03/18 11:44:00;;;;;;;0.47;0.20;;;;;;;;;;4817761;29;20497;-85
2024/03/18 11:46:27;;;;;;;2.13;0.30;;;;;;;;;;4837258;29;20663;-83
2024/03/18 11:49:06;;;;;;;0.47;0.22;;;;;;;;;;4851632;29;20500;-83
2024/03/18 11:51:35;;;;;;;0.68;0.55;;;;;;;;;;4841390;29;20034;-83
2024/03/18 11:54:09;;;;;;;0.17;0.08;;;;;;;;;;4838444;29;20050;-82
2024/03/18 11:56:37;;;;;;;1.30;0.17;;;;;;;;;;4840656;29;20418;-84
2024/03/18 11:59:03;;;;;;;0.75;0.10;;;;;;;;;;4835520;29;20057;-83
2024/03/18 12:01:30;;;;;;;0.40;0.20;;;;;;;;;;4839219;29;20049;-83
2024/03/18 12:03:56;;;;;;;0.47;0.43;;;;;;;;;;4836920;29;20061;-81
2024/03/18 12:06:22;;;;;;;1.70;0.57;;;;;;;;;;4837656;29;20039;-82
2024/03/18 12:08:49;;;;;;;1.98;0.60;;;;;;;;;;4841587;29;20050;-80
2024/03/18 12:11:15;;;;;;;0.82;0.38;;;;;;;;;;4837888;29;20563;-82
2024/03/18 12:13:41;;;;;;;1.02;0.35;;;;;;;;;;4839882;29;20089;-82
2024/03/18 12:16:12;;;;;;;1.65;0.63;;;;;;;;;;4841166;29;20159;-82
2024/03/18 12:18:38;;;;;;;0.57;0.30;;;;;;;;;;4841987;29;20054;-82
2024/03/18 12:21:04;;;;;;;0.30;0.10;;;;;;;;;;4838588;29;20070;-82
2024/03/18 12:29:01;;;;;;;1.95;0.57;;;;;;;;;;4839675;29;20061;-83
2024/03/18 12:31:30;;;;;;;0.65;0.20;;;;;;;;;;4846084;29;20030;-83
2024/03/18 12:33:59;;;;;;;1.00;0.17;;;;;;;;;;4843538;29;20473;-82
2024/03/18 12:36:25;;;;;;;0.77;0.30;;;;;;;;;;4842754;29;20046;-83
2024/03/18 12:38:51;;;;;;;3.13;0.65;;;;;;;;;;4839970;29;20053;-83
2024/03/18 12:41:30;;;;;;;0.32;0.20;;;;;;;;;;4840447;29;20068;-86
2024/03/18 12:43:59;;;;;;;2.10;0.38;;;;;;;;;;4841659;29;20092;-83
2024/03/18 12:46:25;;;;;;;1.42;0.20;;;;;;;;;;4824077;29;20107;-83
2024/03/18 12:48:51;;;;;;;1.13;0.30;;;;;;;;;;4821322;29;20133;-83
2024/03/18 12:51:20;;;;;;;0.85;0.45;;;;;;;;;;4840743;29;20045;-83
2024/03/18 12:53:46;;;;;;;3.95;0.40;;;;;;;;;;4841059;29;20073;-83
2024/03/18 12:56:16;;;;;;;1.60;0.10;;;;;;;;;;4837718;29;20433;-85
2024/03/18 12:58:43;;;;;;;0.32;0.05;;;;;;;;;;4828649;29;20052;-84
2024/03/18 13:12:21;;;;;;;0.28;0.13;;;;;;;;;;4833289;29;20046;-85
2024/03/18 13:14:57;;;;;;;0.60;0.20;;;;;;;;;;4822622;29;20049;-85
2024/03/18 13:17:27;;;;;;;1.45;0.45;;;;;;;;;;4812191;29;20057;-86
2024/03/18 13:20:04;;;;;;;1.05;0.30;;;;;;;;;;4829764;29;20045;-86
2024/03/18 13:22:36;;;;;;;0.73;0.40;;;;;;;;;;4794013;29;20115;-85
2024/03/18 13:25:11;;;;;;;3.37;0.10;;;;;;;;;;4776210;29;20074;-86
2024/03/18 13:42:00;;;;;;;;;;;;;;;;;;;;;
2024/03/18 13:47:33;;;;;;;4.05;0.28;;;;;;;;;;4833709;29;20041;-84
2024/03/18 13:50:04;;;;;;;0.57;0.20;;;;;;;;;;4838045;29;20210;-85
2024/03/18 13:52:32;;;;;;;0.00;0.00;;;;;;;;;;4839840;29;20404;-85
2024/03/18 13:55:00;;;;;;;3.30;0.40;;;;;;;;;;4835826;29;20058;-85
2024/03/18 13:57:34;;;;;;;0.30;0.20;;;;;;;;;;4839185;29;20660;-85
2024/03/18 14:00:10;;;;;;;0.60;0.13;;;;;;;;;;4838063;29;20046;-85
2024/03/18 14:02:38;;;;;;;0.22;0.20;;;;;;;;;;4837780;29;20656;-85
2024/03/18 14:05:05;;;;;;;0.30;0.30;;;;;;;;;;4839101;29;20037;-85
2024/03/18 14:07:31;;;;;;;0.65;0.17;;;;;;;;;;4835823;29;20485;-85
2024/03/18 14:09:59;;;;;;;2.47;0.20;;;;;;;;;;4832597;29;20054;-85
2024/03/18 14:12:26;;;;;;;20.38;0.60;;;;;;;;;;4830534;29;20507;-85
2024/03/18 14:14:55;;;;;;;0.25;0.20;;;;;;;;;;4836441;29;20042;-85
2024/03/18 14:17:21;;;;;;;0.13;0.10;;;;;;;;;;4823805;29;20485;-85
2024/03/18 14:19:47;;;;;;;0.30;0.10;;;;;;;;;;4833995;29;20038;-85
2024/03/18 14:22:13;;;;;;;0.93;0.20;;;;;;;;;;4832376;29;20429;-85
2024/03/18 14:24:47;;;;;;;0.17;0.08;;;;;;;;;;4832255;29;20083;-87
2024/03/18 14:27:25;;;;;;;0.63;0.32;;;;;;;;;;4839039;29;20085;-86
2024/03/18 14:29:51;;;;;;;0.77;0.30;;;;;;;;;;4837754;29;20042;-83
2024/03/18 14:32:20;;;;;;;15.20;4.38;;;;;;;;;;4842050;29;20057;-83
2024/03/18 14:34:48;;;;;;;4.75;1.27;;;;;;;;;;4841366;29;20095;-84
2024/03/18 14:37:14;;;;;;;0.00;0.00;;;;;;;;;;4833603;29;20401;-83
2024/03/18 14:39:40;;;;;;;0.85;0.30;;;;;;;;;;4849069;29;20050;-84
2024/03/18 14:42:19;;;;;;;1.33;0.10;;;;;;;;;;4835735;29;20473;-85
2024/03/18 14:45:07;;;;;;;0.10;0.08;;;;;;;;;;4840147;29;20053;-88
2024/03/18 16:01:26;;;;;;;0.57;0.32;;;;;;;;;;4826891;29;20094;-88
2024/03/18 16:04:13;;;;;;;0.10;0.05;;;;;;;;;;4808217;29;20521;-89
2024/03/18 16:15:20;;;;;;;0.35;0.10;;;;;;;;;;4830986;29;20553;-85
2024/03/18 16:17:46;;;;;;;0.10;0.10;;;;;;;;;;4788942;29;20043;-86
2024/03/18 16:20:13;;;;;;;0.10;0.10;;;;;;;;;;4791680;29;20046;-86
2024/03/18 16:22:39;;;;;;;0.68;0.50;;;;;;;;;;4791442;29;20064;-85
2024/03/18 16:34:25;;;;;;;0.25;0.17;;;;;;;;;;4809462;29;20068;-85
2024/03/18 16:37:02;;;;;;;0.40;0.30;;;;;;;;;;4809743;29;20116;-86
2024/03/18 16:40:14;;;;;;;2.38;0.80;;;;;;;;;;4809753;29;20042;-87
2024/03/18 16:42:43;;;;;;;0.23;0.20;;;;;;;;;;4688546;30;20502;-87
2024/03/18 16:45:15;;;;;;;5.80;0.38;;;;;;;;;;4798433;29;20053;-86
2024/03/18 16:47:42;;;;;;;0.63;0.30;;;;;;;;;;4830999;29;20034;-86
2024/03/18 16:50:32;;;;;;;0.30;0.10;;;;;;;;;;4830643;29;20053;-85
2024/03/18 17:48:25;;;;;;;;;;;;;;;;;;;;;
2024/03/18 18:06:19;;;;;;;2.30;0.85;;;;;;;;;;5426433;24;19928;-87
2024/03/18 18:59:35;;;;;;;2.65;1.48;;;;;;;;;;4840311;29;20468;-83
2024/03/18 19:09:54;;;;;;;5.78;0.63;;;;;;;;;;4908369;24;20065;-82
2024/03/18 19:12:50;;;;;;;1.08;0.10;;;;;;;;;;4836256;29;20515;-84
2024/03/18 19:16:05;;;;;;;;;;;;;;;;;;;;;
2024/03/18 19:18:32;;;;;;;1.42;0.57;;;;;;;;;;4803844;29;20055;-84
2024/03/18 19:20:58;;;;;;;0.43;0.28;;;;;;;;;;4830995;24;20058;-83
2024/03/18 19:27:01;;;;;;;0.38;0.20;;;;;;;;;;4821912;29;20053;-85
2024/03/18 19:49:18;;;;;;;0.85;0.55;;;;;;;;;;5176036;24;20086;-85
2024/03/18 19:51:50;;;;;;;1.15;0.35;;;;;;;;;;4823001;29;20485;-84
2024/03/18 19:54:18;;;;;;;2.90;0.57;;;;;;;;;;4818586;29;20479;-85
2024/03/18 19:56:50;;;;;;;0.45;0.25;;;;;;;;;;4811395;29;20038;-85
2024/03/18 19:59:53;;;;;;;2.60;0.80;;;;;;;;;;4829157;29;20057;-84
2024/03/18 20:05:34;;;;;;;3.58;1.50;;;;;;;;;;4784578;29;20055;-86
2024/03/18 20:09:00;;;;;;;;;;;;;;;;;;;;;
2024/03/18 20:24:44;;;;;;;1.98;0.95;;;;;;;;;;4855273;29;20038;-84
2024/03/18 21:11:05;;;;;;;3.50;1.15;;;;;;;;;;1560045;24;20322;-85
2024/03/18 21:49:52;;;;;;;;;;;;;;;;;;;;;
2024/03/18 21:52:45;;;;;;;3.05;1.85;;;;;;;;;;4767908;30;20053;-84
2024/03/18 22:24:22;;;;;;;4.18;0.73;;;;;;;;;;4812263;29;20058;-83
2024/03/18 22:27:19;;;;;;;0.60;0.40;;;;;;;;;;4787813;29;20050;-83
2024/03/18 22:29:48;;;;;;;3.22;0.60;;;;;;;;;;4781386;29;20066;-83
2024/03/18 22:32:38;;;;;;;1.13;0.43;;;;;;;;;;4778115;29;20047;-83
2024/03/18 22:35:34;;;;;;;4.25;0.98;;;;;;;;;;4779682;29;20064;-83
2024/03/18 22:38:49;;;;;;;1.17;0.28;;;;;;;;;;4777485;29;20039;-83
2024/03/18 22:44:47;;;;;;;0.52;0.43;;;;;;;;;;4786461;29;20654;-83
2024/03/18 22:48:01;;;;;;;1.23;0.50;;;;;;;;;;4791547;29;20065;-83
2024/03/18 22:50:38;;;;;;;1.85;0.25;;;;;;;;;;4786502;29;20043;-83
2024/03/18 22:53:07;;;;;;;2.78;1.08;;;;;;;;;;4798353;29;20046;-84
2024/03/18 23:14:03;;;;;;;0.98;0.22;;;;;;;;;;4833037;29;20090;-84
2024/03/18 23:17:27;;;;;;;;;;;;;;;;;;;;;
